Time;durP1;ratioP1;P1;durP2;ratioP2;P2;SDS_P1;SDS_P2;PMS_P1;PMS_P2;Temp;Humidity;BMP_temperature;BMP_pressure;BME280_temperature;BME280_humidity;BME280_pressure;Samples;Min_cycle;Max_cycle;Signal;HPM_P1;HPM_P2
2021/12/30 00:00:46;;;;;;;45.40;15.25;;;;;;;1.58;100.00;100096.81;5072862;28;20098;-71
2021/12/30 00:03:14;;;;;;;40.58;15.77;;;;;;;1.54;100.00;100105.66;5072750;28;20059;-71
2021/12/30 00:05:44;;;;;;;40.80;15.50;;;;;;;1.60;100.00;100113.41;5073061;28;20076;-71
2021/12/30 00:08:13;;;;;;;47.30;15.02;;;;;;;1.35;100.00;100100.03;5072589;28;20132;-71
2021/12/30 00:10:42;;;;;;;48.22;15.07;;;;;;;1.33;100.00;100106.22;5072745;28;20041;-71
2021/12/30 00:13:11;;;;;;;48.80;15.75;;;;;;;1.38;100.00;100109.59;5072209;28;20065;-71
2021/12/30 00:15:41;;;;;;;48.63;15.68;;;;;;;1.38;100.00;100120.13;5072889;28;20044;-70
2021/12/30 00:18:10;;;;;;;55.28;15.32;;;;;;;1.39;100.00;100117.44;5071961;28;20045;-71
2021/12/30 00:20:39;;;;;;;47.25;15.25;;;;;;;1.43;100.00;100118.22;5072375;28;20044;-71
2021/12/30 00:23:10;;;;;;;45.65;15.57;;;;;;;1.34;100.00;100118.44;5072277;28;20553;-71
2021/12/30 00:25:41;;;;;;;53.45;15.00;;;;;;;1.38;100.00;100114.88;5072773;28;20094;-71
2021/12/30 00:28:12;;;;;;;43.15;15.75;;;;;;;1.40;100.00;100128.81;5072078;28;20036;-70
2021/12/30 00:30:41;;;;;;;50.72;14.75;;;;;;;1.45;100.00;100126.97;5072725;28;20069;-71
2021/12/30 00:33:10;;;;;;;44.15;13.85;;;;;;;1.38;100.00;100136.75;5072255;28;20041;-71
2021/12/30 00:35:39;;;;;;;46.83;15.38;;;;;;;1.34;100.00;100144.72;5075377;28;20032;-71
2021/12/30 00:38:10;;;;;;;44.83;14.38;;;;;;;1.39;100.00;100146.34;5075922;28;20045;-71
2021/12/30 00:40:39;;;;;;;44.33;14.93;;;;;;;1.40;100.00;100155.09;5076283;28;20482;-71
2021/12/30 00:43:08;;;;;;;37.65;12.93;;;;;;;1.52;100.00;100161.81;5075868;28;20048;-71
2021/12/30 00:45:37;;;;;;;43.15;14.63;;;;;;;1.51;100.00;100160.09;5076082;28;20056;-71
2021/12/30 00:48:07;;;;;;;34.83;13.13;;;;;;;1.46;100.00;100160.22;5075830;28;20375;-71
2021/12/30 00:50:36;;;;;;;42.63;14.15;;;;;;;1.49;100.00;100168.03;5076197;28;20379;-71
2021/12/30 00:53:06;;;;;;;40.60;13.32;;;;;;;1.55;100.00;100167.88;5075462;28;20068;-71
2021/12/30 00:55:36;;;;;;;36.35;12.60;;;;;;;1.52;100.00;100175.81;5075990;28;20128;-73
2021/12/30 00:58:05;;;;;;;40.97;13.15;;;;;;;1.54;100.00;100173.16;5075774;28;20040;-73
2021/12/30 01:00:34;;;;;;;37.88;12.90;;;;;;;1.54;100.00;100179.28;5075964;28;20040;-73
2021/12/30 01:03:03;;;;;;;42.35;14.05;;;;;;;1.43;100.00;100183.94;5075933;28;20044;-73
2021/12/30 01:05:32;;;;;;;32.15;12.35;;;;;;;1.44;100.00;100188.28;5075535;28;20047;-72
2021/12/30 01:08:02;;;;;;;37.08;12.75;;;;;;;1.42;100.00;100196.22;5075414;28;20135;-73
2021/12/30 01:10:32;;;;;;;44.30;13.45;;;;;;;1.30;100.00;100186.00;5075675;28;20048;-72
2021/12/30 01:13:05;;;;;;;34.70;13.00;;;;;;;1.37;100.00;100189.34;5075492;28;20063;-72
2021/12/30 01:15:46;;;;;;;42.60;12.88;;;;;;;1.34;100.00;100181.53;5075694;28;20041;-72
2021/12/30 01:18:30;;;;;;;39.65;13.18;;;;;;;1.29;100.00;100179.00;5074954;28;20533;-72
2021/12/30 01:20:58;;;;;;;;;;;;;;;1.37;100.00;100178.84;5075945;28;20052;-73
2021/12/30 01:23:27;;;;;;;40.20;12.85;;;;;;;1.42;100.00;100190.94;5075683;28;19921;-73
2021/12/30 01:25:56;;;;;;;34.80;12.20;;;;;;;1.45;100.00;100184.78;5075174;28;20047;-75
2021/12/30 01:28:28;;;;;;;35.40;12.30;;;;;;;1.41;100.00;100188.38;5075059;28;20051;-72
2021/12/30 01:30:57;;;;;;;34.08;12.48;;;;;;;1.48;100.00;100189.97;5075304;28;20127;-74
2021/12/30 01:33:29;;;;;;;38.20;13.55;;;;;;;1.53;100.00;100187.19;5076307;28;20371;-72
2021/12/30 01:35:57;;;;;;;35.75;13.95;;;;;;;1.43;100.00;100192.69;5075028;28;20040;-73
2021/12/30 01:38:26;;;;;;;37.45;12.73;;;;;;;1.46;100.00;100202.28;5074933;28;20040;-72
2021/12/30 01:40:57;;;;;;;44.55;13.38;;;;;;;1.42;100.00;100200.59;5075229;28;20119;-72
2021/12/30 01:43:29;;;;;;;42.90;14.02;;;;;;;1.31;100.00;100207.88;5074969;28;20055;-72
2021/12/30 01:45:58;;;;;;;49.05;13.13;;;;;;;1.29;100.00;100210.56;5073633;28;20036;-74
2021/12/30 01:48:26;;;;;;;36.67;12.77;;;;;;;1.32;100.00;100210.47;5075009;28;20040;-70
2021/12/30 01:50:55;;;;;;;42.80;13.45;;;;;;;1.39;100.00;100211.19;5074960;28;20036;-71
2021/12/30 01:53:23;;;;;;;37.25;12.38;;;;;;;1.51;100.00;100212.66;5074599;28;20044;-71
2021/12/30 01:55:51;;;;;;;34.97;12.57;;;;;;;1.47;100.00;100216.28;5074467;28;20127;-70
2021/12/30 01:58:20;;;;;;;35.70;12.38;;;;;;;1.55;100.00;100212.56;5074631;28;20393;-70
2021/12/30 02:00:51;;;;;;;37.25;12.23;;;;;;;1.43;100.00;100207.59;5074634;28;20079;-70
2021/12/30 02:03:21;;;;;;;37.90;12.90;;;;;;;1.40;100.00;100202.41;5074167;28;20040;-69
2021/12/30 02:05:51;;;;;;;45.28;13.75;;;;;;;1.39;100.00;100206.81;5074382;28;20051;-70
2021/12/30 02:08:21;;;;;;;33.75;11.65;;;;;;;1.55;100.00;100211.72;5074014;28;20040;-71
2021/12/30 02:10:50;;;;;;;37.90;12.57;;;;;;;1.54;100.00;100210.81;5075131;28;20048;-69
2021/12/30 02:13:20;;;;;;;33.00;12.50;;;;;;;1.57;100.00;100220.44;5073157;28;20048;-71
2021/12/30 02:15:50;;;;;;;38.90;12.77;;;;;;;1.48;100.00;100221.50;5074512;28;20167;-70
2021/12/30 02:18:19;;;;;;;41.55;12.75;;;;;;;1.38;100.00;100210.34;5074150;28;20055;-71
2021/12/30 02:20:52;;;;;;;38.58;12.80;;;;;;;1.41;100.00;100209.41;5072772;28;20051;-71
2021/12/30 02:23:23;;;;;;;43.60;13.10;;;;;;;1.46;100.00;100212.78;5074076;28;20040;-71
2021/12/30 02:25:53;;;;;;;41.95;14.02;;;;;;;1.37;100.00;100216.50;5074037;28;20045;-71
2021/12/30 02:28:24;;;;;;;43.25;14.02;;;;;;;1.49;100.00;100212.72;5074215;28;20036;-72
2021/12/30 02:30:54;;;;;;;42.80;13.73;;;;;;;1.43;100.00;100210.22;5074113;28;20044;-72
2021/12/30 02:33:23;;;;;;;41.80;12.73;;;;;;;1.60;100.00;100207.19;5073838;28;20049;-72
2021/12/30 02:35:54;;;;;;;38.72;13.00;;;;;;;1.58;100.00;100211.63;5074079;28;20037;-71
2021/12/30 02:38:24;;;;;;;44.10;13.05;;;;;;;1.57;100.00;100209.91;5073757;28;20041;-72
2021/12/30 02:40:55;;;;;;;37.08;12.55;;;;;;;1.43;100.00;100207.59;5073724;28;20044;-71
2021/12/30 02:43:26;;;;;;;39.70;12.80;;;;;;;1.54;100.00;100208.19;5073897;28;20497;-72
2021/12/30 02:45:56;;;;;;;42.45;13.27;;;;;;;1.46;100.00;100207.53;5073908;28;20079;-70
2021/12/30 02:48:28;;;;;;;46.60;13.55;;;;;;;1.36;100.00;100204.25;5073494;28;20055;-68
2021/12/30 02:51:00;;;;;;;49.33;13.88;;;;;;;1.32;100.00;100205.22;5073940;28;20056;-70
2021/12/30 02:53:28;;;;;;;44.03;14.02;;;;;;;1.43;100.00;100197.06;5073601;28;20050;-70
2021/12/30 02:55:57;;;;;;;47.65;13.43;;;;;;;1.26;100.00;100194.00;5073783;28;20057;-70
2021/12/30 02:58:26;;;;;;;40.72;12.13;;;;;;;1.43;100.00;100194.44;5072968;28;20375;-70
2021/12/30 03:00:59;;;;;;;36.40;13.48;;;;;;;1.42;100.00;100193.59;5073586;28;20102;-70
2021/12/30 03:03:28;;;;;;;;;;;;;;;1.42;100.00;100209.34;5074072;28;20095;-70
2021/12/30 03:05:59;;;;;;;55.88;13.40;;;;;;;1.43;100.00;100218.97;5071997;28;19924;-70
2021/12/30 03:08:28;;;;;;;42.50;13.35;;;;;;;1.49;100.00;100215.34;5073246;28;20094;-70
2021/12/30 03:10:56;;;;;;;40.47;13.40;;;;;;;1.56;100.00;100208.19;5073580;28;20113;-70
2021/12/30 03:13:30;;;;;;;73.55;13.60;;;;;;;1.50;100.00;100205.69;5072951;28;20046;-70
2021/12/30 03:16:02;;;;;;;35.38;12.20;;;;;;;1.44;100.00;100209.31;5073472;28;20124;-71
2021/12/30 03:18:31;;;;;;;54.97;13.43;;;;;;;1.28;100.00;100223.72;5073254;28;20151;-71
2021/12/30 03:21:01;;;;;;;38.33;11.82;;;;;;;1.27;100.00;100219.38;5073275;28;20044;-71
2021/12/30 03:23:30;;;;;;;41.35;14.13;;;;;;;1.33;100.00;100211.34;5073463;28;20055;-71
2021/12/30 03:25:58;;;;;;;41.05;13.20;;;;;;;1.43;100.00;100220.72;5073377;28;20051;-71
2021/12/30 03:28:27;;;;;;;43.53;13.18;;;;;;;1.30;100.00;100219.28;5072971;28;20044;-71
2021/12/30 03:30:58;;;;;;;46.33;13.23;;;;;;;1.29;100.00;100223.69;5072914;28;20127;-71
2021/12/30 03:33:29;;;;;;;43.60;12.90;;;;;;;1.32;100.00;100230.63;5072923;28;20058;-69
2021/12/30 03:35:59;;;;;;;41.05;13.05;;;;;;;1.26;100.00;100236.91;5073141;28;20036;-69
2021/12/30 03:38:30;;;;;;;38.28;13.15;;;;;;;1.33;100.00;100232.34;5072470;28;20094;-70
2021/12/30 03:40:58;;;;;;;43.38;12.90;;;;;;;1.24;100.00;100230.78;5073070;28;20124;-71
2021/12/30 03:43:28;;;;;;;34.47;11.57;;;;;;;1.16;100.00;100240.66;5072483;28;20040;-71
2021/12/30 03:45:56;;;;;;;51.33;13.38;;;;;;;1.14;100.00;100251.16;5072105;28;20143;-71
2021/12/30 03:48:32;;;;;;;46.90;13.60;;;;;;;1.10;100.00;100259.16;5072733;28;20143;-71
2021/12/30 03:51:04;;;;;;;43.22;12.73;;;;;;;0.96;100.00;100256.78;5073070;28;20148;-71
2021/12/30 03:53:37;;;;;;;44.47;12.27;;;;;;;0.96;100.00;100264.69;5071931;28;20086;-71
2021/12/30 03:56:06;;;;;;;42.97;12.25;;;;;;;1.00;100.00;100266.38;5073004;28;20490;-71
2021/12/30 03:58:35;;;;;;;35.83;11.63;;;;;;;0.95;100.00;100260.31;5073163;28;20401;-70
2021/12/30 04:01:04;;;;;;;42.17;13.02;;;;;;;0.82;100.00;100261.47;5072929;28;20489;-70
2021/12/30 04:03:33;;;;;;;39.47;12.48;;;;;;;0.96;100.00;100275.19;5072797;28;20090;-70
2021/12/30 04:06:01;;;;;;;37.45;12.05;;;;;;;1.09;100.00;100287.19;5072806;28;20110;-70
2021/12/30 04:08:30;;;;;;;36.58;11.57;;;;;;;1.06;100.00;100282.00;5072232;28;20470;-70
2021/12/30 04:11:01;;;;;;;35.85;12.15;;;;;;;1.12;100.00;100281.00;5076148;28;20090;-71
2021/12/30 04:13:29;;;;;;;36.13;12.68;;;;;;;1.14;100.00;100277.44;5076466;28;20075;-69
2021/12/30 04:15:58;;;;;;;41.88;13.13;;;;;;;1.08;100.00;100279.34;5076513;28;20044;-71
2021/12/30 04:18:26;;;;;;;36.28;13.23;;;;;;;1.12;100.00;100278.38;5076554;28;20045;-72
2021/12/30 04:20:55;;;;;;;38.25;12.73;;;;;;;1.09;100.00;100289.81;5076617;28;20064;-71
2021/12/30 04:23:23;;;;;;;36.25;12.35;;;;;;;1.16;100.00;100303.69;5076333;28;20110;-71
2021/12/30 04:25:52;;;;;;;40.25;12.02;;;;;;;1.10;100.00;100302.06;5076516;28;20045;-71
2021/12/30 04:28:22;;;;;;;36.05;12.65;;;;;;;1.15;100.00;100302.81;5076211;28;20041;-71
2021/12/30 04:30:50;;;;;;;42.25;13.05;;;;;;;1.20;100.00;100309.75;5076645;28;20045;-71
2021/12/30 04:33:19;;;;;;;37.38;12.30;;;;;;;1.18;100.00;100308.91;5075956;28;20037;-72
2021/12/30 04:35:49;;;;;;;42.40;13.55;;;;;;;1.20;100.00;100315.00;5076092;28;20405;-72
2021/12/30 04:38:18;;;;;;;44.53;13.98;;;;;;;1.01;100.00;100310.13;5076591;28;20063;-71
2021/12/30 04:40:46;;;;;;;46.67;13.15;;;;;;;1.01;100.00;100299.63;5076200;28;20040;-71
2021/12/30 04:43:14;;;;;;;42.50;12.80;;;;;;;0.97;100.00;100291.84;5075846;28;20044;-71
2021/12/30 04:45:46;;;;;;;38.92;13.10;;;;;;;0.96;100.00;100285.69;5076102;28;20126;-70
2021/12/30 04:48:19;;;;;;;40.27;12.87;;;;;;;0.95;100.00;100302.34;5075907;28;20048;-69
2021/12/30 04:50:48;;;;;;;37.38;13.23;;;;;;;1.09;100.00;100286.31;5076210;28;20044;-70
2021/12/30 04:53:18;;;;;;;32.80;11.63;;;;;;;0.96;100.00;100304.06;5074351;28;20131;-71
2021/12/30 04:55:47;;;;;;;30.90;11.45;;;;;;;0.84;100.00;100317.47;5076296;28;20084;-70
2021/12/30 04:58:16;;;;;;;29.20;10.95;;;;;;;0.94;100.00;100323.41;5075582;28;20040;-71
2021/12/30 05:00:47;;;;;;;26.83;9.73;;;;;;;0.99;100.00;100324.19;5075867;28;20128;-71
2021/12/30 05:03:16;;;;;;;29.02;10.05;;;;;;;0.91;100.00;100324.34;5075480;28;20060;-71
2021/12/30 05:05:47;;;;;;;25.75;10.27;;;;;;;0.97;100.00;100334.72;5075696;28;20044;-71
2021/12/30 05:08:17;;;;;;;25.30;9.75;;;;;;;0.98;100.00;100341.72;5075520;28;20062;-71
2021/12/30 05:10:46;;;;;;;31.00;10.23;;;;;;;0.84;100.00;100348.97;5076113;28;20511;-71
2021/12/30 05:13:15;;;;;;;32.00;10.23;;;;;;;0.75;100.00;100375.41;5075330;28;20072;-72
2021/12/30 05:15:44;;;;;;;28.98;10.63;;;;;;;0.75;100.00;100383.28;5075267;28;20505;-72
2021/12/30 05:18:15;;;;;;;31.55;10.82;;;;;;;0.80;100.00;100389.31;5074935;28;20040;-73
2021/12/30 05:20:43;;;;;;;28.88;11.13;;;;;;;0.83;100.00;100399.75;5074958;28;20478;-72
2021/12/30 05:23:12;;;;;;;29.75;10.00;;;;;;;0.93;100.00;100401.31;5075239;28;20444;-74
2021/12/30 05:25:42;;;;;;;42.38;11.00;;;;;;;0.91;100.00;100418.00;5075226;28;20040;-72
2021/12/30 05:28:10;;;;;;;41.30;11.13;;;;;;;0.95;100.00;100423.16;5075038;28;20052;-74
2021/12/30 05:30:38;;;;;;;35.88;11.25;;;;;;;0.91;100.00;100418.88;5075099;28;20041;-71
2021/12/30 05:33:07;;;;;;;37.15;10.95;;;;;;;1.04;100.00;100441.38;5075145;28;20040;-71
2021/12/30 05:35:37;;;;;;;42.65;11.70;;;;;;;1.00;100.00;100431.84;5075023;28;20553;-71
2021/12/30 05:38:06;;;;;;;27.83;9.85;;;;;;;0.92;100.00;100427.63;5075205;28;20044;-73
2021/12/30 05:40:34;;;;;;;38.00;11.50;;;;;;;0.94;100.00;100434.56;5074819;28;20045;-72
2021/12/30 05:43:03;;;;;;;37.17;11.50;;;;;;;0.95;100.00;100435.44;5075106;28;20047;-72
2021/12/30 05:45:32;;;;;;;39.20;10.80;;;;;;;0.99;100.00;100443.25;5074823;28;20052;-72
2021/12/30 05:48:00;;;;;;;33.47;10.18;;;;;;;1.07;100.00;100440.50;5075171;28;20036;-72
2021/12/30 05:50:31;;;;;;;26.33;10.20;;;;;;;1.18;100.00;100449.03;5074622;28;20481;-71
2021/12/30 05:53:00;;;;;;;30.55;11.13;;;;;;;1.22;100.00;100442.81;5074822;28;20047;-70
2021/12/30 05:55:29;;;;;;;36.33;11.45;;;;;;;1.28;100.00;100433.97;5074630;28;20055;-71
2021/12/30 05:57:58;;;;;;;36.75;11.27;;;;;;;1.21;100.00;100446.34;5074965;28;20123;-73
2021/12/30 06:00:30;;;;;;;34.20;11.90;;;;;;;1.23;100.00;100446.31;5074801;28;20044;-73
2021/12/30 06:02:58;;;;;;;36.20;12.80;;;;;;;1.19;100.00;100439.38;5074904;28;20048;-73
2021/12/30 06:05:28;;;;;;;34.40;12.45;;;;;;;1.12;100.00;100451.75;5074500;28;20044;-73
2021/12/30 06:07:56;;;;;;;32.03;12.45;;;;;;;1.21;100.00;100461.25;5074706;28;20097;-73
2021/12/30 06:10:26;;;;;;;45.25;13.30;;;;;;;1.15;100.00;100465.69;5073929;28;20044;-69
2021/12/30 06:12:54;;;;;;;44.70;12.88;;;;;;;1.12;100.00;100470.16;5074190;28;20113;-69
2021/12/30 06:15:22;;;;;;;33.17;11.98;;;;;;;1.14;100.00;100468.34;5072862;28;20044;-69
2021/12/30 06:17:50;;;;;;;38.67;11.65;;;;;;;1.12;100.00;100478.91;5073484;28;20056;-70
2021/12/30 06:20:18;;;;;;;35.83;11.77;;;;;;;1.20;100.00;100483.16;5074164;28;20098;-71
2021/12/30 06:22:48;;;;;;;28.63;11.45;;;;;;;1.25;100.00;100481.31;5072958;28;20106;-70
2021/12/30 06:25:17;;;;;;;36.88;12.07;;;;;;;1.16;100.00;100487.63;5073785;28;20131;-71
2021/12/30 06:27:46;;;;;;;43.47;12.43;;;;;;;1.15;100.00;100485.84;5073932;28;20405;-71
2021/12/30 06:30:15;;;;;;;30.40;11.15;;;;;;;1.22;100.00;100492.75;5074750;28;20564;-74
2021/12/30 06:32:43;;;;;;;39.40;11.82;;;;;;;1.31;100.00;100494.34;5073677;28;20052;-71
2021/12/30 06:35:12;;;;;;;35.80;11.07;;;;;;;1.35;100.00;100490.75;5073819;28;20438;-71
2021/12/30 06:37:43;;;;;;;41.92;11.48;;;;;;;1.38;100.00;100501.22;5074166;28;20474;-71
2021/12/30 06:40:13;;;;;;;32.50;11.43;;;;;;;1.40;100.00;100502.06;5074088;28;20494;-70
2021/12/30 06:42:43;;;;;;;41.25;11.10;;;;;;;1.40;100.00;100509.94;5073987;28;20041;-70
2021/12/30 06:45:13;;;;;;;34.95;10.38;;;;;;;1.37;100.00;100502.13;5074196;28;20083;-70
2021/12/30 06:47:44;;;;;;;41.72;11.43;;;;;;;1.41;100.00;100515.16;5074169;28;20406;-70
2021/12/30 06:50:13;;;;;;;32.92;10.98;;;;;;;1.48;100.00;100518.56;5073705;28;20386;-70
2021/12/30 06:52:43;;;;;;;31.70;11.35;;;;;;;1.43;100.00;100521.25;5073432;28;20064;-70
2021/12/30 06:55:12;;;;;;;31.17;11.40;;;;;;;1.39;100.00;100526.59;5073354;28;20048;-70
2021/12/30 06:57:41;;;;;;;32.10;11.38;;;;;;;1.35;100.00;100538.06;5073156;28;20046;-70
2021/12/30 07:00:12;;;;;;;30.90;10.80;;;;;;;1.38;100.00;100535.41;5073717;28;20120;-70
2021/12/30 07:02:43;;;;;;;29.77;10.70;;;;;;;1.35;100.00;100553.81;5073298;28;20041;-71
2021/12/30 07:05:12;;;;;;;39.05;11.10;;;;;;;1.32;100.00;100572.28;5073566;28;20043;-71
2021/12/30 07:07:43;;;;;;;43.45;12.07;;;;;;;1.30;100.00;100563.56;5073347;28;20044;-71
2021/12/30 07:10:12;;;;;;;37.20;12.32;;;;;;;1.27;100.00;100574.16;5073463;28;20047;-71
2021/12/30 07:12:40;;;;;;;32.05;11.48;;;;;;;1.24;100.00;100567.16;5072944;28;20042;-71
2021/12/30 07:15:09;;;;;;;38.20;13.52;;;;;;;1.29;100.00;100561.84;5073371;28;20036;-71
2021/12/30 07:17:38;;;;;;;44.25;14.18;;;;;;;1.36;100.00;100563.47;5072064;28;20371;-71
2021/12/30 07:20:09;;;;;;;43.10;13.57;;;;;;;1.41;100.00;100564.25;5073084;28;20048;-71
2021/12/30 07:22:38;;;;;;;50.90;13.98;;;;;;;1.38;100.00;100562.53;5072974;28;20041;-71
2021/12/30 07:25:16;;;;;;;38.13;13.55;;;;;;;1.48;100.00;100554.50;5073392;28;20048;-71
2021/12/30 07:27:48;;;;;;;36.92;12.57;;;;;;;1.44;100.00;100564.19;5073281;28;20041;-71
2021/12/30 07:30:16;;;;;;;47.95;15.20;;;;;;;1.46;100.00;100575.56;5072367;28;20036;-71
2021/12/30 07:32:46;;;;;;;49.90;14.43;;;;;;;1.46;100.00;100567.66;5071521;28;20111;-71
2021/12/30 07:35:17;;;;;;;42.55;14.15;;;;;;;1.46;100.00;100585.22;5071109;28;20409;-71
2021/12/30 07:37:46;;;;;;;45.22;14.38;;;;;;;1.44;100.00;100599.22;5070449;28;20454;-71
2021/12/30 07:40:16;;;;;;;45.95;14.05;;;;;;;1.56;100.00;100598.16;5071589;28;20047;-70
2021/12/30 07:42:44;;;;;;;43.42;13.90;;;;;;;1.54;100.00;100597.28;5071406;28;20056;-71
2021/12/30 07:45:13;;;;;;;42.83;14.80;;;;;;;1.57;100.00;100604.28;5071425;28;20090;-71
2021/12/30 07:47:43;;;;;;;45.58;14.38;;;;;;;1.60;100.00;100604.22;5071003;28;20041;-71
2021/12/30 07:50:13;;;;;;;45.38;15.45;;;;;;;1.63;100.00;100598.91;5071294;28;20053;-71
2021/12/30 07:52:43;;;;;;;45.35;14.30;;;;;;;1.69;100.00;100604.06;5070700;28;20048;-71
2021/12/30 07:55:13;;;;;;;45.65;13.93;;;;;;;1.64;100.00;100611.13;5071464;28;20071;-71
2021/12/30 07:57:42;;;;;;;41.55;14.40;;;;;;;1.66;100.00;100610.25;5070959;28;20223;-71
2021/12/30 08:00:15;;;;;;;42.63;14.38;;;;;;;1.59;100.00;100608.59;5071295;28;20048;-71
2021/12/30 08:02:44;;;;;;;50.28;14.82;;;;;;;1.61;100.00;100604.19;5070729;28;20082;-71
2021/12/30 08:05:15;;;;;;;47.38;15.02;;;;;;;1.60;100.00;100610.34;5071278;28;20072;-71
2021/12/30 08:07:46;;;;;;;45.97;14.43;;;;;;;1.59;100.00;100603.34;5070930;28;20048;-71
2021/12/30 08:10:18;;;;;;;41.08;14.60;;;;;;;1.60;100.00;100598.97;5070968;28;20040;-71
2021/12/30 08:12:48;;;;;;;45.77;14.73;;;;;;;1.66;100.00;100604.13;5070762;28;20106;-70
2021/12/30 08:15:18;;;;;;;51.40;15.73;;;;;;;1.66;100.00;100609.38;5071219;28;20048;-69
2021/12/30 08:17:49;;;;;;;47.25;16.10;;;;;;;1.67;100.00;100611.97;5070845;28;20037;-69
2021/12/30 08:20:19;;;;;;;49.05;16.38;;;;;;;1.69;100.00;100615.44;5071369;28;20075;-71
2021/12/30 08:22:51;;;;;;;42.75;14.93;;;;;;;1.82;100.00;100617.84;5070961;28;20044;-70
2021/12/30 08:25:20;;;;;;;50.33;15.82;;;;;;;1.73;100.00;100608.34;5071299;28;20383;-70
2021/12/30 08:27:49;;;;;;;47.55;16.00;;;;;;;1.87;100.00;100621.25;5070639;28;20040;-69
2021/12/30 08:30:19;;;;;;;47.08;15.68;;;;;;;1.98;100.00;100617.53;5069400;28;20045;-69
2021/12/30 08:32:49;;;;;;;45.92;15.65;;;;;;;2.05;100.00;100620.03;5074029;28;20401;-69
2021/12/30 08:35:20;;;;;;;47.65;15.30;;;;;;;1.98;100.00;100616.66;5071134;28;20115;-70
2021/12/30 08:37:51;;;;;;;50.58;15.63;;;;;;;2.11;100.00;100620.78;5070731;28;20040;-71
2021/12/30 08:40:20;;;;;;;48.20;14.73;;;;;;;2.00;100.00;100617.50;5070577;28;20537;-71
2021/12/30 08:42:48;;;;;;;44.17;15.48;;;;;;;2.11;100.00;100627.81;5070191;28;20075;-75
2021/12/30 08:45:17;;;;;;;40.70;14.68;;;;;;;2.23;100.00;100627.59;5070420;28;20049;-74
2021/12/30 08:47:47;;;;;;;44.30;15.73;;;;;;;2.13;100.00;100633.94;5070472;28;20501;-76
2021/12/30 08:50:18;;;;;;;45.53;14.95;;;;;;;2.13;100.00;100637.44;5070836;28;20040;-75
2021/12/30 08:52:48;;;;;;;48.20;16.80;;;;;;;2.21;100.00;100635.47;5070235;28;20181;-74
2021/12/30 08:55:18;;;;;;;47.35;15.35;;;;;;;2.19;100.00;100637.28;5070991;28;20075;-75
2021/12/30 08:57:48;;;;;;;44.80;15.55;;;;;;;2.09;100.00;100635.72;5073661;28;20036;-74
2021/12/30 09:00:23;;;;;;;47.80;14.73;;;;;;;2.15;100.00;100634.75;5074089;28;20102;-73
2021/12/30 09:02:51;;;;;;;52.53;14.68;;;;;;;2.10;100.00;100636.59;5073632;28;20047;-74
2021/12/30 09:05:21;;;;;;;44.25;14.68;;;;;;;2.15;100.00;100640.88;5073659;28;20041;-74
2021/12/30 09:07:50;;;;;;;40.40;14.32;;;;;;;2.16;100.00;100636.50;5089537;28;20117;-70
2021/12/30 09:10:21;;;;;;;43.15;14.52;;;;;;;2.17;100.00;100632.97;5072770;28;20045;-72
2021/12/30 09:12:51;;;;;;;37.33;14.18;;;;;;;2.15;100.00;100633.00;5073375;28;20159;-71
2021/12/30 09:15:22;;;;;;;41.55;14.45;;;;;;;2.15;100.00;100635.63;5074101;28;20146;-71
2021/12/30 09:17:51;;;;;;;42.67;13.63;;;;;;;2.25;100.00;100626.66;5073944;28;20123;-70
2021/12/30 09:20:20;;;;;;;40.60;13.27;;;;;;;2.19;100.00;100628.53;5074219;28;20068;-71
2021/12/30 09:22:48;;;;;;;43.55;14.80;;;;;;;2.16;100.00;100625.97;5073552;28;20150;-71
2021/12/30 09:25:19;;;;;;;40.45;13.93;;;;;;;2.16;100.00;100636.50;5073541;28;20044;-71
2021/12/30 09:27:49;;;;;;;42.80;13.70;;;;;;;2.26;100.00;100638.91;5073216;28;20095;-70
2021/12/30 09:30:18;;;;;;;44.17;14.93;;;;;;;2.28;100.00;100647.63;5073971;28;20072;-70
2021/12/30 09:32:48;;;;;;;44.42;14.25;;;;;;;2.24;100.00;100645.97;5073248;28;20433;-71
2021/12/30 09:35:17;;;;;;;45.00;15.10;;;;;;;2.25;100.00;100649.47;5073257;28;20055;-72
2021/12/30 09:37:46;;;;;;;43.33;14.45;;;;;;;2.20;100.00;100649.53;5073367;28;20040;-69
2021/12/30 09:40:15;;;;;;;47.35;14.23;;;;;;;2.24;100.00;100653.88;5073621;28;20044;-69
2021/12/30 09:42:47;;;;;;;52.78;15.38;;;;;;;2.28;100.00;100647.63;5073103;28;20049;-69
2021/12/30 09:45:19;;;;;;;45.08;15.02;;;;;;;2.28;100.00;100647.63;5073583;28;20040;-70
2021/12/30 09:47:50;;;;;;;45.33;14.60;;;;;;;2.42;100.00;100643.88;5073583;28;20041;-70
2021/12/30 09:50:24;;;;;;;46.17;14.32;;;;;;;2.44;100.00;100648.19;5073308;28;20127;-70
2021/12/30 09:52:52;;;;;;;;;;;;;;;2.52;100.00;100645.41;5073496;28;20129;-70
2021/12/30 09:55:21;;;;;;;47.28;15.57;;;;;;;2.58;100.00;100650.53;5073137;28;20060;-71
2021/12/30 09:57:52;;;;;;;44.03;15.20;;;;;;;2.59;100.00;100641.72;5073255;28;20398;-71
2021/12/30 10:00:23;;;;;;;43.03;14.07;;;;;;;2.60;100.00;100640.81;5073228;28;20068;-70
2021/12/30 10:02:51;;;;;;;52.60;17.35;;;;;;;2.63;100.00;100647.81;5072723;28;20444;-67
2021/12/30 10:05:24;;;;;;;46.55;15.60;;;;;;;2.60;100.00;100648.72;5072904;28;20062;-69
2021/12/30 10:08:08;;;;;;;48.90;17.23;;;;;;;2.58;100.00;100650.53;5071540;28;20045;-67
2021/12/30 10:10:39;;;;;;;45.58;16.33;;;;;;;2.57;100.00;100656.69;5072984;28;20040;-68
2021/12/30 10:13:22;;;;;;;46.10;16.10;;;;;;;2.75;100.00;100652.81;5073050;28;20052;-68
2021/12/30 10:15:54;;;;;;;37.00;13.82;;;;;;;2.75;100.00;100648.41;5072796;28;20045;-67
2021/12/30 10:18:24;;;;;;;39.63;13.80;;;;;;;2.74;100.00;100644.03;5073235;28;20044;-67
2021/12/30 10:20:54;;;;;;;34.47;12.90;;;;;;;2.84;100.00;100637.66;5072610;28;20331;-67
2021/12/30 10:23:24;;;;;;;42.97;13.73;;;;;;;2.79;100.00;100650.06;5073203;28;20159;-67
2021/12/30 10:25:54;;;;;;;40.33;13.30;;;;;;;2.85;100.00;100652.56;5072580;28;20047;-67
2021/12/30 10:28:27;;;;;;;38.72;14.27;;;;;;;2.85;100.00;100655.22;5072942;28;20048;-67
2021/12/30 10:31:00;;;;;;;35.75;14.50;;;;;;;2.86;100.00;100650.81;5072041;28;20066;-67
2021/12/30 10:33:30;;;;;;;39.60;15.45;;;;;;;2.89;100.00;100650.72;5072777;28;20045;-67
2021/12/30 10:35:59;;;;;;;42.38;14.63;;;;;;;2.82;100.00;100649.16;5072552;28;20127;-67
2021/12/30 10:38:31;;;;;;;41.83;15.23;;;;;;;2.85;100.00;100649.06;5072656;28;20040;-65
2021/12/30 10:41:04;;;;;;;42.20;15.02;;;;;;;2.81;100.00;100645.66;5072274;28;20474;-67
2021/12/30 10:43:37;;;;;;;36.63;14.85;;;;;;;2.80;100.00;100645.69;5072510;28;20362;-67
2021/12/30 10:46:20;;;;;;;;;;;;;;;2.80;100.00;100640.41;5088074;28;20493;-67
2021/12/30 10:48:56;;;;;;;39.22;13.15;;;;;;;2.88;100.00;100649.00;5070842;28;19928;-67
2021/12/30 10:51:28;;;;;;;36.45;13.77;;;;;;;2.91;100.00;100642.81;5072508;28;20045;-67
2021/12/30 10:53:58;;;;;;;40.35;14.65;;;;;;;2.91;100.00;100642.81;5071678;28;20056;-66
2021/12/30 10:56:32;;;;;;;40.00;14.35;;;;;;;2.96;100.00;100643.56;5072557;28;20048;-67
2021/12/30 10:59:22;;;;;;;37.70;12.75;;;;;;;3.05;100.00;100636.31;5071993;28;20084;-66
2021/12/30 11:01:54;;;;;;;35.80;13.00;;;;;;;3.04;100.00;100634.59;5071992;28;20436;-67
2021/12/30 11:04:36;;;;;;;36.30;13.55;;;;;;;3.13;100.00;100644.91;5072169;28;20044;-67
2021/12/30 11:07:05;;;;;;;35.30;13.15;;;;;;;3.15;100.00;100631.69;5072234;28;20044;-67
2021/12/30 11:09:34;;;;;;;38.40;14.48;;;;;;;3.15;100.00;100631.69;5072014;28;20036;-67
2021/12/30 11:12:05;;;;;;;39.40;14.38;;;;;;;3.21;100.00;100628.06;5071588;28;20110;-67
2021/12/30 11:14:39;;;;;;;38.67;13.10;;;;;;;3.23;100.00;100624.47;5071668;28;20041;-69
2021/12/30 11:17:15;;;;;;;35.40;15.02;;;;;;;3.14;100.00;100622.91;5071942;28;20123;-67
2021/12/30 11:19:53;;;;;;;37.90;14.75;;;;;;;3.18;100.00;100621.06;5071362;28;20044;-68
2021/12/30 11:22:25;;;;;;;35.63;14.00;;;;;;;3.15;100.00;100626.41;5071883;28;20049;-67